createdAt,value
2017-07-27T00:00:09.798Z,1004.06
2017-07-27T00:01:19.270Z,1004.05
2017-07-27T00:02:28.890Z,1004.04
2017-07-27T00:03:38.525Z,1004
2017-07-27T00:04:48.461Z,1003.96
2017-07-27T00:05:58.105Z,1003.95
2017-07-27T00:07:07.728Z,1003.97
2017-07-27T00:08:17.044Z,1003.93
2017-07-27T00:09:26.994Z,1003.92
2017-07-27T00:10:37.235Z,1003.96
2017-07-27T00:11:47.171Z,1003.95
2017-07-27T00:12:57.105Z,1003.99
2017-07-27T00:14:07.336Z,1003.97
2017-07-27T00:15:16.654Z,1003.96
2017-07-27T00:16:26.900Z,1003.95
2017-07-27T00:17:36.826Z,1003.98
2017-07-27T00:18:47.229Z,1003.92
2017-07-27T00:19:57.471Z,1004
2017-07-27T00:21:07.435Z,1004.03
2017-07-27T00:22:17.086Z,1004.01
2017-07-27T00:23:27.328Z,1003.97
2017-07-27T00:24:37.051Z,1003.97
2017-07-27T00:25:47.281Z,1003.94
2017-07-27T00:26:57.223Z,1003.92
2017-07-27T00:28:07.146Z,1003.96
2017-07-27T00:29:16.778Z,1003.98
2017-07-27T00:30:26.570Z,1003.95
2017-07-27T00:31:36.499Z,1003.92
2017-07-27T00:32:46.756Z,1003.99
2017-07-27T00:33:57.004Z,1003.9
2017-07-27T00:35:06.951Z,1003.9
2017-07-27T00:36:16.586Z,1003.87
2017-07-27T00:37:26.819Z,1003.89
2017-07-27T00:38:36.763Z,1003.9
2017-07-27T00:39:46.690Z,1003.9
2017-07-27T00:40:56.625Z,1003.87
2017-07-27T00:42:06.100Z,1003.9
2017-07-27T00:43:16.344Z,1003.87
2017-07-27T00:44:26.582Z,1003.87
2017-07-27T00:45:36.534Z,1003.85
2017-07-27T00:46:46.780Z,1003.84
2017-07-27T00:47:56.964Z,1003.83
2017-07-27T00:49:07.204Z,1003.85
2017-07-27T00:50:16.828Z,1003.88
2017-07-27T00:51:27.089Z,1003.91
2017-07-27T00:52:37.023Z,1003.86
2017-07-27T00:53:47.100Z,1003.9
2017-07-27T00:54:57.327Z,1003.94
2017-07-27T00:56:07.245Z,1003.93
2017-07-27T00:57:17.480Z,1003.92
2017-07-27T00:58:27.741Z,1003.91
2017-07-27T00:59:37.738Z,1003.88
2017-07-27T01:00:47.668Z,1003.91
2017-07-27T01:01:57.614Z,1003.87
2017-07-27T01:03:07.558Z,1003.87
2017-07-27T01:04:17.215Z,1003.88
2017-07-27T01:05:27.137Z,1003.89
2017-07-27T01:06:36.762Z,1003.85
2017-07-27T01:07:47.030Z,1003.84
2017-07-27T01:08:57.262Z,1003.86
2017-07-27T01:10:07.194Z,1003.85
2017-07-27T01:11:17.729Z,1003.81
2017-07-27T01:12:27.964Z,1003.82
2017-07-27T01:13:37.915Z,1003.81
2017-07-27T01:14:47.245Z,1003.79
2017-07-27T01:15:57.200Z,1003.8
2017-07-27T01:17:07.127Z,1003.82
2017-07-27T01:18:16.756Z,1003.78
2017-07-27T01:19:26.378Z,1003.77
2017-07-27T01:20:36.619Z,1003.75
2017-07-27T01:21:45.951Z,1003.75
2017-07-27T01:22:56.332Z,1003.77
2017-07-27T01:24:06.251Z,1003.77
2017-07-27T01:25:16.853Z,1003.73
2017-07-27T01:26:26.189Z,1003.71
2017-07-27T01:27:36.130Z,1003.69
2017-07-27T01:28:45.901Z,1003.66
2017-07-27T01:29:56.154Z,1003.69
2017-07-27T01:31:05.540Z,1003.64
2017-07-27T01:32:15.529Z,1003.65
2017-07-27T01:33:25.767Z,1003.62
2017-07-27T01:34:36.078Z,1003.64
2017-07-27T01:35:46.020Z,1003.63
2017-07-27T01:36:55.666Z,1003.65
2017-07-27T01:38:05.898Z,1003.61
2017-07-27T01:39:15.835Z,1003.64
2017-07-27T01:40:25.904Z,1003.63
2017-07-27T01:41:35.844Z,1003.61
2017-07-27T01:42:45.781Z,1003.6
2017-07-27T01:43:55.730Z,1003.56
2017-07-27T01:45:05.969Z,1003.58
2017-07-27T01:46:16.209Z,1003.55
2017-07-27T01:47:26.145Z,1003.53
2017-07-27T01:48:36.073Z,1003.52
2017-07-27T01:49:46.006Z,1003.51
2017-07-27T01:50:55.625Z,1003.54
2017-07-27T01:52:04.780Z,1003.54
2017-07-27T01:53:14.699Z,1003.58
2017-07-27T01:54:24.009Z,1003.55
2017-07-27T01:55:33.925Z,1003.58
2017-07-27T01:56:42.921Z,1003.56
2017-07-27T01:57:53.168Z,1003.61
2017-07-27T01:59:02.500Z,1003.57
2017-07-27T02:00:12.738Z,1003.62
2017-07-27T02:01:22.358Z,1003.64
2017-07-27T02:02:32.603Z,1003.63
2017-07-27T02:03:42.644Z,1003.62
2017-07-27T02:04:52.577Z,1003.65
2017-07-27T02:06:02.500Z,1003.64
2017-07-27T02:07:12.422Z,1003.67
2017-07-27T02:08:22.354Z,1003.63
2017-07-27T02:09:32.384Z,1003.67
2017-07-27T02:10:42.620Z,1003.64
2017-07-27T02:11:52.882Z,1003.67
2017-07-27T02:13:02.808Z,1003.67
2017-07-27T02:14:12.733Z,1003.67
2017-07-27T02:15:23.116Z,1003.64
2017-07-27T02:16:32.428Z,1003.66
2017-07-27T02:17:42.650Z,1003.64
2017-07-27T02:18:52.579Z,1003.57
2017-07-27T02:20:02.819Z,1003.59
2017-07-27T02:21:12.913Z,1003.56
2017-07-27T02:22:22.530Z,1003.59
2017-07-27T02:23:32.458Z,1003.59
2017-07-27T02:24:42.390Z,1003.55
2017-07-27T02:25:52.011Z,1003.54
2017-07-27T02:27:01.642Z,1003.58
2017-07-27T02:28:11.862Z,1003.58
2017-07-27T02:29:21.801Z,1003.49
2017-07-27T02:30:31.427Z,1003.46
2017-07-27T02:31:41.384Z,1003.47
2017-07-27T02:32:51.172Z,1003.42
2017-07-27T02:34:01.400Z,1003.41
2017-07-27T02:35:11.344Z,1003.38
2017-07-27T02:36:20.955Z,1003.36
2017-07-27T02:37:31.193Z,1003.36
2017-07-27T02:38:41.218Z,1003.34
2017-07-27T02:39:50.839Z,1003.3
2017-07-27T02:41:00.482Z,1003.3
2017-07-27T02:42:10.711Z,1003.33
2017-07-27T02:43:20.964Z,1003.32
2017-07-27T02:44:31.288Z,1003.27
2017-07-27T02:45:40.912Z,1003.3
2017-07-27T02:46:50.837Z,1003.24
2017-07-27T02:48:00.447Z,1003.29
2017-07-27T02:49:10.685Z,1003.27
2017-07-27T02:50:20.775Z,1003.25
2017-07-27T02:51:30.698Z,1003.21
2017-07-27T02:52:40.315Z,1003.22
2017-07-27T02:53:50.253Z,1003.23
2017-07-27T02:54:59.869Z,1003.26
2017-07-27T02:56:09.837Z,1003.28
2017-07-27T02:57:19.459Z,1003.23
2017-07-27T02:58:28.778Z,1003.26
2017-07-27T02:59:38.411Z,1003.27
2017-07-27T03:00:47.716Z,1003.23
2017-07-27T03:01:57.960Z,1003.24
2017-07-27T03:03:08.210Z,1003.22
2017-07-27T03:04:18.127Z,1003.24
2017-07-27T03:05:28.062Z,1003.22
2017-07-27T03:06:38.002Z,1003.19
2017-07-27T03:07:47.947Z,1003.17
2017-07-27T03:08:57.566Z,1003.18
2017-07-27T03:10:07.811Z,1003.22
2017-07-27T03:11:18.134Z,1003.23
2017-07-27T03:12:28.390Z,1003.24
2017-07-27T03:13:38.481Z,1003.25
2017-07-27T03:14:48.737Z,1003.25
2017-07-27T03:15:58.681Z,1003.27
2017-07-27T03:17:08.633Z,1003.26
2017-07-27T03:18:18.564Z,1003.27
2017-07-27T03:19:28.911Z,1003.25
2017-07-27T03:20:38.868Z,1003.27
2017-07-27T03:21:48.798Z,1003.24
2017-07-27T03:22:58.114Z,1003.26
2017-07-27T03:24:08.345Z,1003.22
2017-07-27T03:25:18.057Z,1003.19
2017-07-27T03:26:27.980Z,1003.21
2017-07-27T03:27:37.912Z,1003.2
2017-07-27T03:28:48.187Z,1003.16
2017-07-27T03:29:57.800Z,1003.17
2017-07-27T03:31:07.743Z,1003.17
2017-07-27T03:32:17.700Z,1003.13
2017-07-27T03:33:27.009Z,1003.16
2017-07-27T03:34:36.020Z,1003.12
2017-07-27T03:35:45.956Z,1003.15
2017-07-27T03:36:56.206Z,1003.12
2017-07-27T03:38:05.826Z,1003.17
2017-07-27T03:39:15.772Z,1003.19
2017-07-27T03:40:25.700Z,1003.17
2017-07-27T03:41:35.323Z,1003.19
2017-07-27T03:42:45.393Z,1003.15
2017-07-27T03:43:55.333Z,1003.13
2017-07-27T03:45:05.573Z,1003.12
2017-07-27T03:46:15.826Z,1003.11
2017-07-27T03:47:26.052Z,1003.13
2017-07-27T03:48:35.728Z,1003.15
2017-07-27T03:49:45.346Z,1003.09
2017-07-27T03:50:55.274Z,1003.1
2017-07-27T03:52:05.228Z,1003.09
2017-07-27T03:53:14.851Z,1002.99
2017-07-27T03:54:24.829Z,1003.02
2017-07-27T03:55:34.759Z,1002.98
2017-07-27T03:56:44.670Z,1002.99
2017-07-27T03:57:54.926Z,1003.01
2017-07-27T03:59:05.168Z,1003.01
2017-07-27T04:00:15.400Z,1002.99
2017-07-27T04:01:25.014Z,1003.03
2017-07-27T04:02:34.651Z,1003
2017-07-27T04:03:44.887Z,1003.08
2017-07-27T04:04:54.828Z,1003.06
2017-07-27T04:06:05.404Z,1003.09
2017-07-27T04:07:15.013Z,1003.13
2017-07-27T04:08:24.628Z,1003.17
2017-07-27T04:09:34.856Z,1003.14
2017-07-27T04:10:45.092Z,1003.14
2017-07-27T04:11:55.011Z,1003.13
2017-07-27T04:13:05.267Z,1003.16
2017-07-27T04:14:14.893Z,1003.14
2017-07-27T04:15:24.507Z,1003.09
2017-07-27T04:16:34.753Z,1003.06
2017-07-27T04:17:44.781Z,1003.05
2017-07-27T04:18:54.714Z,1003.09
2017-07-27T04:20:04.669Z,1003.08
2017-07-27T04:21:14.601Z,1003.09
2017-07-27T04:22:24.835Z,1003.08
2017-07-27T04:23:34.910Z,1003.08
2017-07-27T04:24:45.130Z,1003
2017-07-27T04:25:55.048Z,1003.01
2017-07-27T04:27:05.284Z,1002.99
2017-07-27T04:28:15.213Z,1002.98
2017-07-27T04:29:25.308Z,1003.07
2017-07-27T04:30:34.928Z,1003.04
2017-07-27T04:31:44.865Z,1003.02
2017-07-27T04:32:54.782Z,1003.01
2017-07-27T04:34:05.010Z,1003.01
2017-07-27T04:35:14.930Z,1003.01
2017-07-27T04:36:25.165Z,1003.02
2017-07-27T04:37:35.103Z,1003
2017-07-27T04:38:44.725Z,1002.99
2017-07-27T04:39:54.651Z,1003.03
2017-07-27T04:41:04.591Z,1003.02
2017-07-27T04:42:14.827Z,1003.05
2017-07-27T04:43:24.777Z,1003.05
2017-07-27T04:44:34.701Z,1003.04
2017-07-27T04:45:44.661Z,1003.04
2017-07-27T04:46:54.771Z,1002.98
2017-07-27T04:48:04.391Z,1003.02
2017-07-27T04:49:14.000Z,1003.04
2017-07-27T04:50:23.960Z,1003.08
2017-07-27T04:51:33.887Z,1003.1
2017-07-27T04:52:43.811Z,1003.08
2017-07-27T04:53:53.744Z,1003.1
2017-07-27T04:55:03.685Z,1003.1
2017-07-27T04:56:13.928Z,1003.13
2017-07-27T04:57:23.875Z,1003.11
2017-07-27T04:58:34.115Z,1003.14
2017-07-27T04:59:44.380Z,1003.16
2017-07-27T05:00:54.303Z,1003.17
2017-07-27T05:02:04.241Z,1003.19
2017-07-27T05:03:14.205Z,1003.26
2017-07-27T05:04:24.596Z,1003.25
2017-07-27T05:05:34.816Z,1003.24
2017-07-27T05:06:44.734Z,1003.2
2017-07-27T05:07:54.653Z,1003.2
2017-07-27T05:09:04.883Z,1003.18
2017-07-27T05:10:15.158Z,1003.14
2017-07-27T05:11:25.074Z,1003.14
2017-07-27T05:12:34.071Z,1003.14
2017-07-27T05:13:44.305Z,1003
2017-07-27T05:14:54.234Z,1003.04
2017-07-27T05:16:04.731Z,1003.05
2017-07-27T05:17:14.662Z,1003.01
2017-07-27T05:18:24.588Z,1002.99
2017-07-27T05:19:34.824Z,1002.98
2017-07-27T05:20:44.757Z,1002.98
2017-07-27T05:21:54.425Z,1002.98
2017-07-27T05:23:04.041Z,1003.01
2017-07-27T05:24:13.969Z,1003.04
2017-07-27T05:25:24.228Z,1003.04
2017-07-27T05:26:34.142Z,1002.97
2017-07-27T05:27:44.211Z,1002.96
2017-07-27T05:28:54.196Z,1002.98
2017-07-27T05:30:03.819Z,1002.99
2017-07-27T05:31:13.752Z,1002.95
2017-07-27T05:32:24.001Z,1002.93
2017-07-27T05:33:33.770Z,1002.97
2017-07-27T05:34:43.992Z,1002.89
2017-07-27T05:35:54.228Z,1002.96
2017-07-27T05:37:04.161Z,1002.96
2017-07-27T05:38:14.384Z,1002.99
2017-07-27T05:39:24.072Z,1002.97
2017-07-27T05:40:33.996Z,1002.98
2017-07-27T05:41:44.247Z,1003.03
2017-07-27T05:42:54.483Z,1003.05
2017-07-27T05:44:04.103Z,1003.14
2017-07-27T05:45:14.035Z,1003.14
2017-07-27T05:46:23.966Z,1003.17
2017-07-27T05:47:32.977Z,1003.17
2017-07-27T05:48:43.213Z,1003.16
2017-07-27T05:49:52.844Z,1003.1
2017-07-27T05:51:02.916Z,1003.12
2017-07-27T05:52:12.839Z,1003.16
2017-07-27T05:53:22.756Z,1003.16
2017-07-27T05:54:32.380Z,1003.23
2017-07-27T05:55:42.609Z,1003.22
2017-07-27T05:56:52.636Z,1003.24
2017-07-27T05:58:02.872Z,1003.23
2017-07-27T05:59:12.799Z,1003.18
2017-07-27T06:00:23.039Z,1003.18
2017-07-27T06:01:33.277Z,1003.21
2017-07-27T06:02:42.592Z,1003.19
2017-07-27T06:03:52.533Z,1003.21
2017-07-27T06:05:02.486Z,1003.18
2017-07-27T06:06:12.422Z,1003.17
2017-07-27T06:07:22.664Z,1003.15
2017-07-27T06:08:33.070Z,1003.22
2017-07-27T06:09:42.696Z,1003.2
2017-07-27T06:10:52.609Z,1003.23
2017-07-27T06:12:02.838Z,1003.26
2017-07-27T06:13:12.753Z,1003.31
2017-07-27T06:14:22.845Z,1003.32
2017-07-27T06:15:32.152Z,1003.36
2017-07-27T06:16:41.783Z,1003.41
2017-07-27T06:17:51.709Z,1003.42
2017-07-27T06:19:01.628Z,1003.42
2017-07-27T06:20:11.401Z,1003.44
2017-07-27T06:21:20.727Z,1003.5
2017-07-27T06:22:30.656Z,1003.53
2017-07-27T06:23:40.267Z,1003.58
2017-07-27T06:24:50.515Z,1003.56
2017-07-27T06:26:01.031Z,1003.49
2017-07-27T06:27:10.960Z,1003.52
2017-07-27T06:28:20.588Z,1003.42
2017-07-27T06:29:29.914Z,1003.39
2017-07-27T06:30:39.860Z,1003.38
2017-07-27T06:31:50.237Z,1003.39
2017-07-27T06:33:00.175Z,1003.39
2017-07-27T06:34:10.099Z,1003.42
2017-07-27T06:35:20.032Z,1003.37
2017-07-27T06:36:30.299Z,1003.35
2017-07-27T06:37:40.217Z,1003.35
2017-07-27T06:38:50.460Z,1003.34
2017-07-27T06:40:00.390Z,1003.34
2017-07-27T06:41:10.003Z,1003.31
2017-07-27T06:42:19.923Z,1003.36
2017-07-27T06:43:29.535Z,1003.39
2017-07-27T06:44:38.852Z,1003.45
2017-07-27T06:45:48.775Z,1003.45
2017-07-27T06:46:58.699Z,1003.48
2017-07-27T06:48:08.636Z,1003.46
2017-07-27T06:49:18.989Z,1003.5
2017-07-27T06:50:29.242Z,1003.52
2017-07-27T06:51:39.176Z,1003.5
2017-07-27T06:52:49.112Z,1003.53
2017-07-27T06:53:59.357Z,1003.52
2017-07-27T06:55:09.740Z,1003.48
2017-07-27T06:56:19.666Z,1003.56
2017-07-27T06:57:29.906Z,1003.52
2017-07-27T06:58:40.148Z,1003.59
2017-07-27T06:59:50.395Z,1003.56
2017-07-27T07:01:00.077Z,1003.54
2017-07-27T07:02:10.034Z,1003.54
2017-07-27T07:03:20.275Z,1003.53
2017-07-27T07:04:30.207Z,1003.52
2017-07-27T07:05:40.129Z,1003.46
2017-07-27T07:06:50.413Z,1003.47
2017-07-27T07:08:00.391Z,1003.5
2017-07-27T07:09:10.037Z,1003.5
2017-07-27T07:10:19.335Z,1003.52
2017-07-27T07:11:28.961Z,1003.54
2017-07-27T07:12:39.051Z,1003.55
2017-07-27T07:13:48.990Z,1003.51
2017-07-27T07:14:58.936Z,1003.54
2017-07-27T07:16:08.563Z,1003.53
2017-07-27T07:17:18.189Z,1003.59
2017-07-27T07:18:28.485Z,1003.59
2017-07-27T07:19:38.419Z,1003.55
2017-07-27T07:20:48.340Z,1003.64
2017-07-27T07:21:58.591Z,1003.62
2017-07-27T07:23:08.217Z,1003.58
2017-07-27T07:24:18.559Z,1003.56
2017-07-27T07:25:28.491Z,1003.55
2017-07-27T07:26:38.414Z,1003.55
2017-07-27T07:27:48.092Z,1003.57
2017-07-27T07:28:58.037Z,1003.66
2017-07-27T07:30:08.263Z,1003.69
2017-07-27T07:31:18.206Z,1003.72
2017-07-27T07:32:28.145Z,1003.69
2017-07-27T07:33:38.072Z,1003.67
2017-07-27T07:34:48.008Z,1003.72
2017-07-27T07:35:58.103Z,1003.7
2017-07-27T07:37:08.048Z,1003.74
2017-07-27T07:38:17.976Z,1003.81
2017-07-27T07:39:27.906Z,1003.77
2017-07-27T07:40:37.845Z,1003.77
2017-07-27T07:41:48.227Z,1003.81
2017-07-27T07:42:57.877Z,1003.79
2017-07-27T07:44:07.808Z,1003.79
2017-07-27T07:45:17.738Z,1003.76
2017-07-27T07:46:27.679Z,1003.81
2017-07-27T07:47:37.618Z,1003.82
2017-07-27T07:48:47.242Z,1003.78
2017-07-27T07:49:56.878Z,1003.78
2017-07-27T07:51:06.510Z,1003.75
2017-07-27T07:52:16.440Z,1003.77
2017-07-27T07:53:26.377Z,1003.8
2017-07-27T07:54:35.690Z,1003.81
2017-07-27T07:55:45.308Z,1003.83
2017-07-27T07:56:54.959Z,1003.85
2017-07-27T07:58:04.894Z,1003.84
2017-07-27T07:59:14.981Z,1003.85
2017-07-27T08:00:24.627Z,1003.88
2017-07-27T08:01:34.428Z,1003.92
2017-07-27T08:02:44.939Z,1003.84
2017-07-27T08:03:54.879Z,1003.92
2017-07-27T08:05:05.284Z,1003.93
2017-07-27T08:06:14.906Z,1003.93
2017-07-27T08:07:24.842Z,1003.9
2017-07-27T08:08:34.763Z,1003.91
2017-07-27T08:09:45.003Z,1003.85
2017-07-27T08:10:54.487Z,1003.86
2017-07-27T08:12:04.727Z,1003.82
2017-07-27T08:13:14.367Z,1003.83
2017-07-27T08:14:23.983Z,1003.9
2017-07-27T08:15:33.921Z,1003.92
2017-07-27T08:16:44.324Z,1003.88
2017-07-27T08:17:54.603Z,1003.89
2017-07-27T08:19:04.261Z,1003.89
2017-07-27T08:20:14.187Z,1003.95
2017-07-27T08:21:23.813Z,1003.9
2017-07-27T08:22:34.055Z,1003.93
2017-07-27T08:23:44.283Z,1003.92
2017-07-27T08:24:54.526Z,1003.89
2017-07-27T08:26:04.447Z,1003.87
2017-07-27T08:27:14.075Z,1003.88
2017-07-27T08:28:23.445Z,1003.85
2017-07-27T08:29:33.685Z,1003.8
2017-07-27T08:30:43.310Z,1003.8
2017-07-27T08:31:53.569Z,1003.81
2017-07-27T08:33:03.818Z,1003.84
2017-07-27T08:34:14.204Z,1003.84
2017-07-27T08:35:24.443Z,1003.79
2017-07-27T08:36:34.073Z,1003.79
2017-07-27T08:37:44.329Z,1003.81
2017-07-27T08:38:54.272Z,1003.85
2017-07-27T08:40:04.209Z,1003.87
2017-07-27T08:41:13.847Z,1003.9
2017-07-27T08:42:23.779Z,1003.9
2017-07-27T08:43:33.705Z,1003.84
2017-07-27T08:44:43.322Z,1003.81
2017-07-27T08:45:53.337Z,1003.84
2017-07-27T08:47:02.971Z,1003.81
2017-07-27T08:48:13.192Z,1003.88
2017-07-27T08:49:23.130Z,1003.86
2017-07-27T08:50:33.076Z,1003.87
2017-07-27T08:51:43.148Z,1003.85
2017-07-27T08:52:52.781Z,1003.88
2017-07-27T08:54:02.715Z,1003.85
2017-07-27T08:55:12.658Z,1003.85
2017-07-27T08:56:22.326Z,1003.88
2017-07-27T08:57:32.252Z,1003.85
2017-07-27T08:58:41.870Z,1003.81
2017-07-27T08:59:51.494Z,1003.78
2017-07-27T09:01:01.428Z,1003.69
2017-07-27T09:02:11.681Z,1003.66
2017-07-27T09:03:21.766Z,1003.73
2017-07-27T09:04:31.393Z,1003.76
2017-07-27T09:05:41.624Z,1003.77
2017-07-27T09:06:51.866Z,1003.79
2017-07-27T09:08:01.482Z,1003.77
2017-07-27T09:09:11.716Z,1003.72
2017-07-27T09:10:21.334Z,1003.69
2017-07-27T09:11:30.967Z,1003.76
2017-07-27T09:12:40.886Z,1003.77
2017-07-27T09:13:51.131Z,1003.78
2017-07-27T09:15:00.608Z,1003.83
2017-07-27T09:16:10.558Z,1003.84
2017-07-27T09:17:20.513Z,1003.9
2017-07-27T09:18:30.436Z,1003.88
2017-07-27T09:19:40.669Z,1003.9
2017-07-27T09:20:50.760Z,1003.95
2017-07-27T09:22:00.695Z,1003.94
2017-07-27T09:23:10.638Z,1003.93
2017-07-27T09:24:20.262Z,1003.89
2017-07-27T09:25:30.193Z,1003.87
2017-07-27T09:26:40.422Z,1003.79
2017-07-27T09:27:50.660Z,1003.84
2017-07-27T09:29:00.900Z,1003.86
2017-07-27T09:30:11.148Z,1003.88
2017-07-27T09:31:21.076Z,1003.88
2017-07-27T09:32:30.255Z,1003.85
2017-07-27T09:33:39.876Z,1003.82
2017-07-27T09:34:49.800Z,1003.77
2017-07-27T09:35:59.735Z,1003.75
2017-07-27T09:37:09.352Z,1003.76
2017-07-27T09:38:19.442Z,1003.71
2017-07-27T09:39:29.061Z,1003.77
2017-07-27T09:40:39.309Z,1003.79
2017-07-27T09:41:49.559Z,1003.77
2017-07-27T09:42:59.481Z,1003.81
2017-07-27T09:44:09.861Z,1003.86
2017-07-27T09:45:20.091Z,1003.84
2017-07-27T09:46:29.411Z,1003.89
2017-07-27T09:47:39.330Z,1003.91
2017-07-27T09:48:48.942Z,1003.94
2017-07-27T09:49:58.995Z,1003.94
2017-07-27T09:51:09.234Z,1003.87
2017-07-27T09:52:18.546Z,1003.79
2017-07-27T09:53:28.509Z,1003.82
2017-07-27T09:54:37.518Z,1003.77
2017-07-27T09:55:47.138Z,1003.76
2017-07-27T09:56:56.772Z,1003.77
2017-07-27T09:58:06.691Z,1003.81
2017-07-27T09:59:16.643Z,1003.78
2017-07-27T10:00:26.294Z,1003.79
2017-07-27T10:01:36.682Z,1003.81
2017-07-27T10:02:46.953Z,1003.79
2017-07-27T10:03:57.205Z,1003.86
2017-07-27T10:05:07.447Z,1003.89
2017-07-27T10:06:17.705Z,1003.91
2017-07-27T10:07:27.968Z,1003.87
2017-07-27T10:08:38.204Z,1003.83
2017-07-27T10:09:48.130Z,1003.88
2017-07-27T10:10:58.055Z,1003.91
2017-07-27T10:12:08.300Z,1003.94
2017-07-27T10:13:18.291Z,1004.01
2017-07-27T10:14:28.428Z,1004.05
2017-07-27T10:15:38.666Z,1004.06
2017-07-27T10:16:48.628Z,1004.04
2017-07-27T10:17:58.567Z,1004.07
2017-07-27T10:19:07.674Z,1004.06
2017-07-27T10:20:17.612Z,1003.99
2017-07-27T10:21:27.846Z,1003.94
2017-07-27T10:22:37.468Z,1003.89
2017-07-27T10:23:47.704Z,1003.81
2017-07-27T10:24:57.812Z,1003.85
2017-07-27T10:26:07.745Z,1003.89
2017-07-27T10:27:17.064Z,1003.84
2017-07-27T10:28:26.997Z,1003.83
2017-07-27T10:29:36.316Z,1003.81
2017-07-27T10:30:46.033Z,1003.8
2017-07-27T10:31:55.964Z,1003.81
2017-07-27T10:33:06.214Z,1003.77
2017-07-27T10:34:16.437Z,1003.71
2017-07-27T10:35:26.058Z,1003.73
2017-07-27T10:36:35.989Z,1003.7
2017-07-27T10:37:45.925Z,1003.69
2017-07-27T10:38:55.565Z,1003.72
2017-07-27T10:40:05.494Z,1003.76
2017-07-27T10:41:15.175Z,1003.84
2017-07-27T10:42:25.133Z,1003.87
2017-07-27T10:43:34.460Z,1003.83
2017-07-27T10:44:44.738Z,1003.87
2017-07-27T10:45:54.352Z,1003.86
2017-07-27T10:47:04.338Z,1003.85
2017-07-27T10:48:14.564Z,1003.83
2017-07-27T10:49:24.194Z,1003.91
2017-07-27T10:50:34.133Z,1003.95
2017-07-27T10:51:44.090Z,1004.06
2017-07-27T10:52:54.324Z,1004.02
2017-07-27T10:54:04.404Z,1004.05
2017-07-27T10:55:14.637Z,1004.07
2017-07-27T10:56:24.559Z,1004.02
2017-07-27T10:57:34.796Z,1004.03
2017-07-27T10:58:44.454Z,1004.04
2017-07-27T10:59:54.741Z,1004.03
2017-07-27T11:01:04.365Z,1003.96
2017-07-27T11:02:14.291Z,1004
2017-07-27T11:03:24.228Z,1003.96
2017-07-27T11:04:34.145Z,1004.02
2017-07-27T11:05:43.922Z,1004.04
2017-07-27T11:06:53.224Z,1004.02
2017-07-27T11:08:03.142Z,1004
2017-07-27T11:09:13.376Z,1003.91
2017-07-27T11:10:23.317Z,1003.93
2017-07-27T11:11:33.248Z,1003.87
2017-07-27T11:12:43.498Z,1003.88
2017-07-27T11:13:53.439Z,1003.89
2017-07-27T11:15:03.381Z,1003.91
2017-07-27T11:16:13.314Z,1003.93
2017-07-27T11:17:23.606Z,1003.97
2017-07-27T11:18:33.867Z,1004.01
2017-07-27T11:19:44.120Z,1003.96
2017-07-27T11:20:54.363Z,1003.99
2017-07-27T11:22:03.974Z,1003.96
2017-07-27T11:23:14.064Z,1003.95
2017-07-27T11:24:24.302Z,1003.91
2017-07-27T11:25:34.242Z,1003.94
2017-07-27T11:26:43.856Z,1003.96
2017-07-27T11:27:53.474Z,1003.98
2017-07-27T11:29:03.255Z,1003.98
2017-07-27T11:30:13.203Z,1003.94
2017-07-27T11:31:22.819Z,1003.99
2017-07-27T11:32:32.739Z,1004
2017-07-27T11:33:42.698Z,1003.98
2017-07-27T11:34:52.613Z,1004.01
2017-07-27T11:36:02.550Z,1004.05
2017-07-27T11:37:12.798Z,1004.09
2017-07-27T11:38:22.725Z,1004.09
2017-07-27T11:39:32.335Z,1004.12
2017-07-27T11:40:42.301Z,1004.05
2017-07-27T11:41:52.257Z,1004.03
2017-07-27T11:43:02.503Z,1003.98
2017-07-27T11:44:12.439Z,1003.87
2017-07-27T11:45:22.365Z,1003.81
2017-07-27T11:46:32.678Z,1003.77
2017-07-27T11:47:42.623Z,1003.73
2017-07-27T11:48:52.557Z,1003.74
2017-07-27T11:50:02.176Z,1003.73
2017-07-27T11:51:11.791Z,1003.71
2017-07-27T11:52:21.760Z,1003.73
2017-07-27T11:53:31.378Z,1003.78
2017-07-27T11:54:41.613Z,1003.84
2017-07-27T11:55:51.261Z,1003.87
2017-07-27T11:57:00.875Z,1003.86
2017-07-27T11:58:11.280Z,1003.82
2017-07-27T11:59:21.221Z,1003.77
2017-07-27T12:00:31.138Z,1003.75
2017-07-27T12:01:41.077Z,1003.77
2017-07-27T12:02:50.999Z,1003.75
2017-07-27T12:04:00.954Z,1003.67
2017-07-27T12:05:10.893Z,1003.69
2017-07-27T12:06:20.823Z,1003.72
2017-07-27T12:07:30.455Z,1003.71
2017-07-27T12:08:40.393Z,1003.68
2017-07-27T12:09:50.791Z,1003.69
2017-07-27T12:11:00.417Z,1003.71
2017-07-27T12:12:10.058Z,1003.71
2017-07-27T12:13:19.703Z,1003.74
2017-07-27T12:14:29.657Z,1003.84
2017-07-27T12:15:39.646Z,1003.85
2017-07-27T12:16:49.904Z,1003.88
2017-07-27T12:17:59.569Z,1003.87
2017-07-27T12:19:09.191Z,1003.91
2017-07-27T12:20:18.846Z,1003.91
2017-07-27T12:21:28.327Z,1003.93
2017-07-27T12:22:38.267Z,1003.93
2017-07-27T12:23:48.191Z,1003.89
2017-07-27T12:24:57.803Z,1003.93
2017-07-27T12:26:07.418Z,1003.97
2017-07-27T12:27:17.359Z,1004.03
2017-07-27T12:28:27.276Z,1004.05
2017-07-27T12:29:37.513Z,1004.07
2017-07-27T12:30:47.443Z,1004.02
2017-07-27T12:31:56.463Z,1004.01
2017-07-27T12:33:06.270Z,1003.98
2017-07-27T12:34:15.600Z,1003.91
2017-07-27T12:35:24.904Z,1003.85
2017-07-27T12:36:34.824Z,1003.71
2017-07-27T12:37:44.453Z,1003.69
2017-07-27T12:38:54.842Z,1003.65
2017-07-27T12:40:04.778Z,1003.61
2017-07-27T12:41:14.400Z,1003.63
2017-07-27T12:42:24.634Z,1003.56
2017-07-27T12:43:34.265Z,1003.55
2017-07-27T12:44:44.560Z,1003.51
2017-07-27T12:45:54.595Z,1003.51
2017-07-27T12:47:04.897Z,1003.53
2017-07-27T12:48:14.878Z,1003.52
2017-07-27T12:49:25.135Z,1003.54
2017-07-27T12:50:34.993Z,1003.52
2017-07-27T12:51:45.055Z,1003.5
2017-07-27T12:52:54.722Z,1003.52
2017-07-27T12:54:04.674Z,1003.54
2017-07-27T12:55:14.922Z,1003.55
2017-07-27T12:56:24.848Z,1003.57
2017-07-27T12:57:34.178Z,1003.58
2017-07-27T12:58:44.435Z,1003.57
2017-07-27T12:59:54.054Z,1003.58
2017-07-27T13:01:03.738Z,1003.54
2017-07-27T13:02:13.407Z,1003.57
2017-07-27T13:03:23.363Z,1003.56
2017-07-27T13:04:33.673Z,1003.58
2017-07-27T13:05:43.016Z,1003.56
2017-07-27T13:06:52.994Z,1003.6
2017-07-27T13:08:02.780Z,1003.58
2017-07-27T13:09:12.405Z,1003.56
2017-07-27T13:10:22.053Z,1003.55
2017-07-27T13:11:31.736Z,1003.5
2017-07-27T13:12:42.002Z,1003.48
2017-07-27T13:13:52.649Z,1003.39
2017-07-27T13:15:02.323Z,1003.42
2017-07-27T13:16:12.266Z,1003.43
2017-07-27T13:17:22.203Z,1003.41
2017-07-27T13:18:32.465Z,1003.42
2017-07-27T13:19:41.874Z,1003.47
2017-07-27T13:20:52.156Z,1003.47
2017-07-27T13:22:02.121Z,1003.44
2017-07-27T13:23:11.834Z,1003.47
2017-07-27T13:24:21.848Z,1003.52
2017-07-27T13:25:31.998Z,1003.59
2017-07-27T13:26:41.638Z,1003.62
2017-07-27T13:27:51.312Z,1003.63
2017-07-27T13:29:00.976Z,1003.55
2017-07-27T13:30:10.637Z,1003.54
2017-07-27T13:31:20.922Z,1003.48
2017-07-27T13:32:30.868Z,1003.52
2017-07-27T13:33:40.806Z,1003.52
2017-07-27T13:34:50.741Z,1003.54
2017-07-27T13:36:00.665Z,1003.61
2017-07-27T13:37:11.007Z,1003.66
2017-07-27T13:38:20.935Z,1003.62
2017-07-27T13:39:31.179Z,1003.67
2017-07-27T13:40:41.116Z,1003.68
2017-07-27T13:41:50.744Z,1003.7
2017-07-27T13:43:01.000Z,1003.75
2017-07-27T13:44:10.926Z,1003.75
2017-07-27T13:45:21.167Z,1003.77
2017-07-27T13:46:31.106Z,1003.75
2017-07-27T13:47:40.761Z,1003.75
2017-07-27T13:48:50.086Z,1003.76
2017-07-27T13:50:00.323Z,1003.75
2017-07-27T13:51:09.957Z,1003.75
2017-07-27T13:52:19.578Z,1003.73
2017-07-27T13:53:29.537Z,1003.71
2017-07-27T13:54:39.777Z,1003.61
2017-07-27T13:55:49.702Z,1003.55
2017-07-27T13:56:59.634Z,1003.53
2017-07-27T13:58:09.580Z,1003.55
2017-07-27T13:59:19.519Z,1003.5
2017-07-27T14:00:28.948Z,1003.48
2017-07-27T14:01:38.874Z,1003.47
2017-07-27T14:02:49.114Z,1003.42
2017-07-27T14:03:58.736Z,1003.47
2017-07-27T14:05:09.013Z,1003.49
2017-07-27T14:06:18.486Z,1003.52
2017-07-27T14:07:28.416Z,1003.56